createdAt,value
2023-01-11T00:01:10.201Z,5.03
2023-01-11T00:03:38.346Z,5.01
2023-01-11T00:06:08.145Z,4.97
2023-01-11T00:08:36.869Z,4.96
2023-01-11T00:11:05.447Z,4.95
2023-01-11T00:13:33.671Z,4.92
2023-01-11T00:16:12.026Z,4.91
2023-01-11T00:18:41.119Z,4.93
2023-01-11T00:21:10.732Z,4.92
2023-01-11T00:23:38.893Z,4.94
2023-01-11T00:26:10.274Z,4.93
2023-01-11T00:28:38.428Z,4.90
2023-01-11T00:31:06.600Z,4.88
2023-01-11T00:33:34.706Z,4.87
2023-01-11T00:36:02.861Z,4.88
2023-01-11T00:38:49.478Z,4.88
2023-01-11T00:41:37.595Z,4.89
2023-01-11T00:44:25.189Z,4.90
2023-01-11T00:47:11.846Z,4.88
2023-01-11T00:49:40.322Z,4.85
2023-01-11T00:52:09.903Z,4.84
2023-01-11T00:54:42.367Z,4.84
2023-01-11T00:57:10.447Z,4.84
2023-01-11T00:59:41.954Z,4.83
2023-01-11T01:02:11.805Z,4.81
2023-01-11T01:04:40.463Z,4.80
2023-01-11T01:07:09.175Z,4.80
2023-01-11T01:09:37.401Z,4.80
2023-01-11T01:12:07.096Z,4.81
2023-01-11T01:14:36.143Z,4.80
2023-01-11T01:17:08.906Z,4.79
2023-01-11T01:19:38.982Z,4.81
2023-01-11T01:22:07.478Z,4.84
2023-01-11T01:24:35.779Z,4.87
2023-01-11T01:27:03.845Z,4.91
2023-01-11T01:29:32.193Z,4.94
2023-01-11T01:32:00.279Z,4.93
2023-01-11T01:34:53.108Z,4.92
2023-01-11T01:37:48.946Z,4.89
2023-01-11T01:40:45.393Z,4.88
2023-01-11T01:43:52.533Z,4.87
2023-01-11T01:46:44.882Z,4.86
2023-01-11T01:49:37.483Z,4.89
2023-01-11T01:52:31.294Z,4.91
2023-01-11T01:55:33.910Z,4.91
2023-01-11T01:58:41.127Z,4.91
2023-01-11T02:01:47.941Z,4.92
2023-01-11T02:04:46.553Z,4.94
2023-01-11T02:07:41.309Z,4.95
2023-01-11T02:10:34.051Z,4.99
2023-01-11T02:13:27.088Z,5.05
2023-01-11T02:16:19.073Z,5.09
2023-01-11T02:19:35.922Z,5.15
2023-01-11T02:22:55.762Z,5.22
2023-01-11T02:26:34.542Z,5.32
2023-01-11T02:29:39.347Z,5.43
2023-01-11T02:32:42.597Z,5.48
2023-01-11T02:35:38.026Z,5.44
2023-01-11T02:38:36.728Z,5.44
2023-01-11T02:42:15.222Z,5.48
2023-01-11T02:45:11.697Z,5.50
2023-01-11T02:48:35.403Z,5.46
2023-01-11T02:51:35.666Z,5.36
2023-01-11T02:54:30.081Z,5.28
2023-01-11T02:57:23.166Z,5.24
2023-01-11T03:04:40.710Z,5.17
2023-01-11T03:07:27.428Z,5.12
2023-01-11T03:10:14.278Z,5.07
2023-01-11T03:13:01.180Z,5.03
2023-01-11T03:16:06.264Z,4.98
2023-01-11T03:18:53.486Z,4.94
2023-01-11T03:21:27.615Z,4.92
2023-01-11T03:24:32.745Z,4.89
2023-01-11T03:27:19.511Z,4.85
2023-01-11T03:29:47.572Z,4.83
2023-01-11T03:32:25.061Z,4.81
2023-01-11T03:35:02.137Z,4.78
2023-01-11T03:38:01.019Z,4.76
2023-01-11T03:40:33.195Z,4.72
2023-01-11T03:43:13.598Z,4.68
2023-01-11T03:45:54.120Z,4.66
2023-01-11T03:48:31.344Z,4.64
2023-01-11T03:51:01.930Z,4.64
2023-01-11T03:53:34.514Z,4.63
2023-01-11T03:56:06.779Z,4.64
2023-01-11T03:58:40.966Z,4.66
2023-01-11T04:01:09.148Z,4.68
2023-01-11T04:03:38.130Z,4.70
2023-01-11T04:06:07.585Z,4.70
2023-01-11T04:08:35.984Z,4.69
2023-01-11T04:11:06.374Z,4.69
2023-01-11T04:13:34.976Z,4.68
2023-01-11T04:16:03.184Z,4.68
2023-01-11T04:18:34.000Z,4.71
2023-01-11T04:21:02.104Z,4.74
2023-01-11T04:23:31.815Z,4.73
2023-01-11T04:26:00.172Z,4.70
2023-01-11T04:28:29.231Z,4.69
2023-01-11T04:30:57.442Z,4.69
2023-01-11T04:33:25.520Z,4.70
2023-01-11T04:35:53.623Z,4.70
2023-01-11T04:38:27.737Z,4.71
2023-01-11T04:41:19.195Z,4.72
2023-01-11T04:43:47.317Z,4.73
2023-01-11T04:46:16.243Z,4.71
2023-01-11T04:48:44.523Z,4.66
2023-01-11T04:51:13.630Z,4.62
2023-01-11T04:53:41.920Z,4.60
2023-01-11T04:56:13.380Z,4.60
2023-01-11T04:58:44.835Z,4.60
2023-01-11T05:01:20.205Z,4.62
2023-01-11T05:03:48.636Z,4.61
2023-01-11T05:06:22.122Z,4.61
2023-01-11T05:08:54.397Z,4.60
2023-01-11T05:11:30.327Z,4.54
2023-01-11T05:14:00.083Z,4.47
2023-01-11T05:16:28.718Z,4.40
2023-01-11T05:18:59.696Z,4.34
2023-01-11T05:21:31.670Z,4.28
2023-01-11T05:24:01.679Z,4.22
2023-01-11T05:26:35.695Z,4.18
2023-01-11T05:29:07.460Z,4.14
2023-01-11T05:31:37.945Z,4.11
2023-01-11T05:34:25.715Z,4.10
2023-01-11T05:36:55.394Z,4.03
2023-01-11T05:39:24.146Z,3.98
2023-01-11T05:41:52.351Z,3.93
2023-01-11T05:44:39.548Z,3.88
2023-01-11T05:47:07.747Z,3.84
2023-01-11T05:49:36.076Z,3.80
2023-01-11T05:52:04.715Z,3.76
2023-01-11T05:54:32.934Z,3.70
2023-01-11T05:57:01.817Z,3.65
2023-01-11T05:59:32.109Z,3.59
2023-01-11T06:02:01.150Z,3.54
2023-01-11T06:04:29.495Z,3.50
2023-01-11T06:06:57.670Z,3.46
2023-01-11T06:09:26.039Z,3.45
2023-01-11T06:11:54.315Z,3.44
2023-01-11T06:14:22.436Z,3.43
2023-01-11T06:16:51.163Z,3.43
2023-01-11T06:19:19.260Z,3.43
2023-01-11T06:21:47.275Z,3.45
2023-01-11T06:24:15.331Z,3.47
2023-01-11T06:26:43.648Z,3.50
2023-01-11T06:29:12.001Z,3.53
2023-01-11T06:31:40.374Z,3.55
2023-01-11T06:34:08.490Z,3.58
2023-01-11T06:36:39.181Z,3.63
2023-01-11T06:39:07.286Z,3.69
2023-01-11T06:41:35.268Z,3.74
2023-01-11T06:44:03.332Z,3.80
2023-01-11T06:46:32.005Z,3.85
2023-01-11T06:49:02.613Z,3.91
2023-01-11T06:51:30.610Z,3.99
2023-01-11T06:53:58.576Z,4.08
2023-01-11T06:56:26.696Z,4.16
2023-01-11T06:58:54.661Z,4.22
2023-01-11T07:01:22.730Z,4.29
2023-01-11T07:03:50.817Z,4.34
2023-01-11T07:06:18.747Z,4.39
2023-01-11T07:08:46.645Z,4.44
2023-01-11T07:11:14.761Z,4.49
2023-01-11T07:13:42.922Z,4.50
2023-01-11T07:16:10.982Z,4.48
2023-01-11T07:18:38.930Z,4.48
2023-01-11T07:21:06.962Z,4.45
2023-01-11T07:23:35.167Z,4.43
2023-01-11T07:26:03.301Z,4.43
2023-01-11T07:28:31.395Z,4.51
2023-01-11T07:31:00.057Z,4.62
2023-01-11T07:33:29.324Z,4.75
2023-01-11T07:36:00.699Z,4.87
2023-01-11T07:38:29.559Z,5.00
2023-01-11T07:40:57.697Z,5.10
2023-01-11T07:43:25.582Z,5.14
2023-01-11T07:45:53.797Z,5.21
2023-01-11T07:48:27.218Z,5.26
2023-01-11T07:50:55.869Z,5.29
2023-01-11T07:53:26.355Z,5.27
2023-01-11T07:55:57.846Z,5.23
2023-01-11T07:58:25.859Z,5.22
2023-01-11T08:00:53.891Z,5.19
2023-01-11T08:03:21.815Z,5.17
2023-01-11T08:05:53.865Z,5.15
2023-01-11T08:08:22.167Z,5.13
2023-01-11T08:11:10.097Z,5.10
2023-01-11T08:13:57.527Z,5.05
2023-01-11T08:16:27.481Z,5.03
2023-01-11T08:18:55.843Z,5.04
2023-01-11T08:21:23.945Z,5.06
2023-01-11T08:23:56.541Z,5.06
2023-01-11T08:26:26.050Z,5.06
2023-01-11T08:28:54.719Z,5.08
2023-01-11T08:31:23.115Z,5.11
2023-01-11T08:33:51.360Z,5.14
2023-01-11T08:36:19.416Z,5.15
2023-01-11T08:38:48.377Z,5.17
2023-01-11T08:41:16.574Z,5.20
2023-01-11T08:43:44.586Z,5.24
2023-01-11T08:46:12.700Z,5.28
2023-01-11T08:48:40.649Z,5.34
2023-01-11T08:51:09.407Z,5.41
2023-01-11T08:53:37.867Z,5.47
2023-01-11T08:56:06.148Z,5.53
2023-01-11T08:58:35.055Z,5.59
2023-01-11T09:01:04.296Z,5.65
2023-01-11T09:03:32.646Z,5.74
2023-01-11T09:06:01.184Z,5.83
2023-01-11T09:08:29.656Z,5.90
2023-01-11T09:10:59.916Z,5.99
2023-01-11T09:13:27.980Z,6.04
2023-01-11T09:15:57.576Z,6.09
2023-01-11T09:18:27.215Z,6.15
2023-01-11T09:20:55.985Z,6.23
2023-01-11T09:23:24.531Z,6.32
2023-01-11T09:25:52.658Z,6.39
2023-01-11T09:28:20.672Z,6.45
2023-01-11T09:30:48.719Z,6.50
2023-01-11T09:33:16.694Z,6.56
2023-01-11T09:35:46.685Z,6.62
2023-01-11T09:38:15.223Z,6.69
2023-01-11T09:41:00.553Z,6.77
2023-01-11T09:43:30.926Z,6.85
2023-01-11T09:46:07.391Z,6.92
2023-01-11T09:48:59.637Z,7.01
2023-01-11T09:51:35.438Z,7.11
2023-01-11T09:54:10.237Z,7.18
2023-01-11T09:56:47.489Z,7.21
2023-01-11T09:59:27.102Z,7.21
2023-01-11T10:02:21.340Z,7.20
2023-01-11T10:04:50.152Z,7.25
2023-01-11T10:07:40.350Z,7.36
2023-01-11T10:18:31.764Z,7.69
2023-01-11T10:19:37.341Z,7.85
2023-01-11T10:22:18.083Z,7.95
2023-01-11T10:24:53.176Z,7.98
2023-01-11T10:27:29.879Z,8.03
2023-01-11T10:30:33.368Z,8.07
2023-01-11T10:33:34.405Z,8.13
2023-01-11T10:36:20.849Z,8.19
2023-01-11T10:39:03.176Z,8.25
2023-01-11T10:41:49.043Z,8.26
2023-01-11T10:44:28.956Z,8.22
2023-01-11T10:46:57.871Z,8.22
2023-01-11T10:49:39.181Z,8.22
2023-01-11T10:52:28.055Z,8.23
2023-01-11T10:54:57.538Z,8.21
2023-01-11T10:58:01.663Z,8.16
2023-01-11T11:00:36.760Z,8.07
2023-01-11T11:03:20.373Z,7.99
2023-01-11T11:06:02.103Z,7.93
2023-01-11T11:08:46.686Z,7.89
2023-01-11T11:11:38.853Z,7.82
2023-01-11T11:14:15.350Z,7.76
2023-01-11T11:17:04.918Z,7.72
2023-01-11T11:19:33.791Z,7.69
2023-01-11T11:22:02.015Z,7.66
2023-01-11T11:24:44.345Z,7.63
2023-01-11T11:27:17.935Z,7.64
2023-01-11T11:29:51.625Z,7.66
2023-01-11T11:32:36.499Z,7.67
2023-01-11T11:35:07.902Z,7.70
2023-01-11T11:37:42.390Z,7.73
2023-01-11T11:40:37.998Z,7.75
2023-01-11T11:43:12.219Z,7.82
2023-01-11T11:46:01.571Z,8.04
2023-01-11T11:48:33.966Z,8.31
2023-01-11T11:51:05.575Z,8.48
2023-01-11T11:53:53.343Z,8.63
2023-01-11T11:56:41.419Z,8.80
2023-01-11T11:59:14.956Z,8.88
2023-01-11T12:01:47.353Z,8.90
2023-01-11T12:04:22.407Z,8.90
2023-01-11T12:07:16.037Z,8.92
2023-01-11T12:09:48.149Z,8.95
2023-01-11T12:12:22.960Z,8.95
2023-01-11T12:15:19.952Z,8.92
2023-01-11T12:17:48.972Z,8.90
2023-01-11T12:20:22.902Z,8.91
2023-01-11T12:23:27.157Z,8.94
2023-01-11T12:26:04.231Z,8.92
2023-01-11T12:28:47.079Z,8.90
2023-01-11T12:31:33.686Z,8.86
2023-01-11T12:34:20.269Z,8.85
2023-01-11T12:37:05.374Z,8.86
2023-01-11T12:39:49.281Z,8.89
2023-01-11T12:42:38.182Z,8.90
2023-01-11T12:45:41.740Z,8.92
2023-01-11T12:48:21.747Z,9.00
2023-01-11T12:50:58.746Z,9.05
2023-01-11T12:53:45.348Z,9.08
2023-01-11T12:56:22.112Z,9.18
2023-01-11T12:59:21.584Z,9.32
2023-01-11T13:01:55.340Z,9.47
2023-01-11T13:05:01.644Z,9.58
2023-01-11T13:07:46.654Z,9.67
2023-01-11T13:10:39.172Z,9.72
2023-01-11T13:13:22.904Z,9.80
2023-01-11T13:15:59.648Z,9.82
2023-01-11T13:18:27.450Z,9.83
2023-01-11T13:21:01.842Z,9.78
2023-01-11T13:23:54.910Z,9.76
2023-01-11T13:26:42.968Z,9.76
2023-01-11T13:29:24.299Z,9.77
2023-01-11T13:31:54.434Z,9.76
2023-01-11T13:34:27.453Z,9.78
2023-01-11T13:37:36.853Z,9.80
2023-01-11T13:40:16.876Z,9.78
2023-01-11T13:42:56.437Z,9.73
2023-01-11T13:45:30.312Z,9.73
2023-01-11T13:48:05.745Z,9.76
2023-01-11T13:50:42.147Z,9.83
2023-01-11T13:53:25.932Z,9.81
2023-01-11T13:56:03.468Z,9.77
2023-01-11T13:58:38.034Z,9.71
2023-01-11T14:01:17.314Z,9.63
2023-01-11T14:03:51.634Z,9.55
2023-01-11T14:06:42.217Z,9.50
2023-01-11T14:09:28.600Z,9.44
2023-01-11T14:12:39.206Z,9.41
2023-01-11T14:15:23.119Z,9.32
2023-01-11T14:18:10.007Z,9.24
2023-01-11T14:20:49.859Z,9.16
2023-01-11T14:23:21.964Z,9.06
2023-01-11T14:25:49.868Z,8.94
2023-01-11T14:28:41.531Z,8.84
2023-01-11T14:31:38.059Z,8.73
2023-01-11T14:34:34.516Z,8.61
2023-01-11T14:37:47.659Z,8.50
2023-01-11T14:40:30.046Z,8.39
2023-01-11T14:43:52.126Z,8.28
2023-01-11T14:46:27.914Z,8.14
2023-01-11T14:49:14.565Z,8.02
2023-01-11T14:52:01.355Z,7.90
2023-01-11T14:54:37.064Z,7.73
2023-01-11T14:57:05.175Z,7.60
2023-01-11T14:59:39.280Z,7.49
2023-01-11T15:02:10.440Z,7.36
2023-01-11T15:04:54.981Z,7.27
2023-01-11T15:07:36.721Z,7.17
2023-01-11T15:10:30.271Z,7.05
2023-01-11T15:12:58.757Z,6.94
2023-01-11T15:15:54.893Z,6.84
2023-01-11T15:18:25.425Z,6.75
2023-01-11T15:21:21.578Z,6.66
2023-01-11T15:23:54.336Z,6.54
2023-01-11T15:26:24.677Z,6.44
2023-01-11T15:28:52.632Z,6.36
2023-01-11T15:31:52.949Z,6.28
2023-01-11T15:34:20.945Z,6.19
2023-01-11T15:37:31.526Z,6.12
2023-01-11T15:40:19.731Z,6.04
2023-01-11T15:43:07.356Z,5.98
2023-01-11T15:46:26.434Z,5.93
2023-01-11T15:49:04.819Z,5.87
2023-01-11T15:52:00.476Z,5.81
2023-01-11T15:54:47.066Z,5.79
2023-01-11T15:57:44.235Z,5.78
2023-01-11T16:00:30.848Z,5.78
2023-01-11T16:03:13.049Z,5.79
2023-01-11T16:05:50.296Z,5.80
2023-01-11T16:08:31.417Z,5.81
2023-01-11T16:11:13.175Z,5.82
2023-01-11T16:13:59.464Z,5.83
2023-01-11T16:16:39.442Z,5.83
2023-01-11T16:19:26.832Z,5.83
2023-01-11T16:21:59.045Z,5.82
2023-01-11T16:24:32.545Z,5.79
2023-01-11T16:27:03.542Z,5.79
2023-01-11T16:29:36.343Z,5.78
2023-01-11T16:32:20.164Z,5.77
2023-01-11T16:34:52.048Z,5.77
2023-01-11T16:37:24.422Z,5.73
2023-01-11T16:40:08.320Z,5.69
2023-01-11T16:42:49.122Z,5.68
2023-01-11T16:45:23.407Z,5.67
2023-01-11T16:48:09.903Z,5.64
2023-01-11T16:50:38.057Z,5.63
2023-01-11T16:53:16.535Z,5.63
2023-01-11T16:56:14.799Z,5.63
2023-01-11T16:58:43.505Z,5.63
2023-01-11T17:01:14.364Z,5.60
2023-01-11T17:03:51.716Z,5.52
2023-01-11T17:06:22.170Z,5.46
2023-01-11T17:08:52.737Z,5.42
2023-01-11T17:11:35.704Z,5.37
2023-01-11T17:14:35.704Z,5.33
2023-01-11T17:17:08.340Z,5.29
2023-01-11T17:19:43.231Z,5.25
2023-01-11T17:22:37.889Z,5.21
2023-01-11T17:25:16.040Z,5.16
2023-01-11T17:27:59.516Z,5.13
2023-01-11T17:30:29.622Z,5.13
2023-01-11T17:33:01.990Z,5.12
2023-01-11T17:35:37.163Z,5.11
2023-01-11T17:38:07.987Z,5.11
2023-01-11T17:40:39.095Z,5.09
2023-01-11T17:43:45.046Z,5.07
2023-01-11T17:46:18.558Z,5.05
2023-01-11T17:48:59.106Z,5.06
2023-01-11T17:51:33.629Z,5.04
2023-01-11T17:54:01.835Z,5.01
2023-01-11T17:56:32.748Z,4.97
2023-01-11T17:59:15.728Z,4.99
2023-01-11T18:01:49.693Z,5.02
2023-01-11T18:04:26.191Z,5.03
2023-01-11T18:06:56.878Z,5.05
2023-01-11T18:09:33.290Z,5.10
2023-01-11T18:12:15.443Z,5.11
2023-01-11T18:14:51.542Z,5.13
2023-01-11T18:17:40.242Z,5.15
2023-01-11T18:20:14.476Z,5.16
2023-01-11T18:22:58.775Z,5.17
2023-01-11T18:25:34.056Z,5.19
2023-01-11T18:28:11.302Z,5.18
2023-01-11T18:30:41.759Z,5.18
2023-01-11T18:33:16.348Z,5.20
2023-01-11T18:35:47.056Z,5.26
2023-01-11T18:38:20.733Z,5.32
2023-01-11T18:40:50.576Z,5.40
2023-01-11T18:43:25.118Z,5.45
2023-01-11T18:45:53.164Z,5.48
2023-01-11T18:48:21.636Z,5.50
2023-01-11T18:50:52.067Z,5.50
2023-01-11T18:53:20.913Z,5.51
2023-01-11T18:55:48.911Z,5.51
2023-01-11T18:58:16.875Z,5.49
2023-01-11T19:00:44.939Z,5.46
2023-01-11T19:05:46.685Z,5.39
2023-01-11T19:08:14.651Z,5.39
2023-01-11T19:10:42.957Z,5.31
2023-01-11T19:13:11.026Z,5.16
2023-01-11T19:15:39.132Z,5.04
2023-01-11T19:18:07.133Z,4.95
2023-01-11T19:20:36.381Z,4.85
2023-01-11T19:23:04.702Z,4.77
2023-01-11T19:25:32.993Z,4.68
2023-01-11T19:28:05.572Z,4.58
2023-01-11T19:30:33.906Z,4.47
2023-01-11T19:33:01.839Z,4.40
2023-01-11T19:35:29.919Z,4.35
2023-01-11T19:37:57.884Z,4.31
2023-01-11T19:40:25.891Z,4.28
2023-01-11T19:42:53.906Z,4.26
2023-01-11T19:45:21.938Z,4.22
2023-01-11T19:47:50.264Z,4.17
2023-01-11T19:50:18.429Z,4.14
2023-01-11T19:52:46.958Z,4.12
2023-01-11T19:55:15.052Z,4.10
2023-01-11T19:57:43.000Z,4.09
2023-01-11T20:00:14.183Z,4.06
2023-01-11T20:02:42.594Z,4.04
2023-01-11T20:05:10.853Z,4.03
2023-01-11T20:07:39.148Z,4.02
2023-01-11T20:10:07.385Z,4.00
2023-01-11T20:12:35.488Z,4.00
2023-01-11T20:15:03.784Z,3.99
2023-01-11T20:17:33.525Z,3.99
2023-01-11T20:20:01.689Z,3.98
2023-01-11T20:22:29.909Z,3.97
2023-01-11T20:24:58.163Z,3.95
2023-01-11T20:27:27.425Z,3.94
2023-01-11T20:29:55.461Z,3.96
2023-01-11T20:32:40.372Z,3.97
2023-01-11T20:35:10.064Z,3.96
2023-01-11T20:37:38.140Z,3.95
2023-01-11T20:40:06.709Z,3.95
2023-01-11T20:42:34.711Z,3.97
2023-01-11T20:45:02.683Z,3.97
2023-01-11T20:47:30.708Z,3.94
2023-01-11T20:49:58.640Z,3.89
2023-01-11T20:52:26.847Z,3.88
2023-01-11T20:55:15.047Z,3.88
2023-01-11T20:57:48.943Z,3.85
2023-01-11T21:00:18.446Z,3.83
2023-01-11T21:02:50.929Z,3.84
2023-01-11T21:05:20.749Z,3.84
2023-01-11T21:07:48.811Z,3.84
2023-01-11T21:10:17.069Z,3.83
2023-01-11T21:15:14.832Z,3.78
2023-01-11T21:17:43.970Z,3.73
2023-01-11T21:20:13.167Z,3.72
2023-01-11T21:22:41.382Z,3.72
2023-01-11T21:25:09.827Z,3.72
2023-01-11T21:27:39.219Z,3.76
2023-01-11T21:30:08.174Z,3.79
2023-01-11T21:32:37.706Z,3.79
2023-01-11T21:35:07.797Z,3.75
2023-01-11T21:37:36.541Z,3.74
2023-01-11T21:40:07.158Z,3.71
2023-01-11T21:42:35.822Z,3.68
2023-01-11T21:45:29.795Z,3.64
2023-01-11T21:48:20.215Z,3.57
2023-01-11T21:50:50.358Z,3.54
2023-01-11T21:53:23.124Z,3.51
2023-01-11T21:55:51.392Z,3.48
2023-01-11T21:58:19.868Z,3.47
2023-01-11T22:00:52.607Z,3.45
2023-01-11T22:03:21.471Z,3.45
2023-01-11T22:05:49.670Z,3.41
2023-01-11T22:08:38.293Z,3.37
2023-01-11T22:11:08.696Z,3.35
2023-01-11T22:13:37.783Z,3.30
2023-01-11T22:16:27.640Z,3.19
2023-01-11T22:19:37.653Z,3.06
2023-01-11T22:22:30.933Z,2.90
2023-01-11T22:25:20.636Z,2.82
2023-01-11T22:27:59.142Z,2.76
2023-01-11T22:30:57.039Z,2.70
2023-01-11T22:34:28.946Z,2.65
2023-01-11T22:37:21.437Z,2.58
2023-01-11T22:39:59.168Z,2.54
2023-01-11T22:42:49.801Z,2.51
2023-01-11T22:45:25.932Z,2.48
2023-01-11T22:47:54.360Z,2.44
2023-01-11T22:50:22.790Z,2.39
2023-01-11T22:52:51.234Z,2.34
2023-01-11T22:55:20.122Z,2.29
2023-01-11T22:57:50.336Z,2.23
2023-01-11T23:00:26.979Z,2.17
2023-01-11T23:03:14.806Z,2.11
2023-01-11T23:05:46.492Z,2.06
2023-01-11T23:08:14.783Z,2.06
2023-01-11T23:10:42.737Z,2.06
2023-01-11T23:13:37.344Z,2.07
2023-01-11T23:16:05.755Z,2.10
2023-01-11T23:18:33.737Z,2.11
2023-01-11T23:21:05.934Z,2.15
2023-01-11T23:23:33.947Z,2.20
2023-01-11T23:26:02.676Z,2.23
2023-01-11T23:28:33.915Z,2.26
2023-01-11T23:31:18.697Z,2.30
2023-01-11T23:33:53.199Z,2.38
2023-01-11T23:36:24.763Z,2.45
2023-01-11T23:38:53.002Z,2.53
2023-01-11T23:41:40.809Z,2.59
2023-01-11T23:44:12.240Z,2.64
2023-01-11T23:47:00.542Z,2.71
2023-01-11T23:49:29.901Z,2.79
2023-01-11T23:51:59.035Z,2.86
2023-01-11T23:54:30.283Z,2.91
2023-01-11T23:57:00.946Z,2.97
2023-01-11T23:59:29.409Z,3.01
